createdAt,value
2022-12-03T00:02:23.868Z,2.23
2022-12-03T00:04:51.426Z,2.20
2022-12-03T00:07:18.398Z,2.29
2022-12-03T00:09:45.427Z,2.28
2022-12-03T00:12:12.161Z,2.37
2022-12-03T00:14:44.915Z,2.33
2022-12-03T00:17:12.028Z,2.32
2022-12-03T00:19:39.053Z,2.34
2022-12-03T00:22:05.768Z,2.34
2022-12-03T00:24:33.834Z,2.35
2022-12-03T00:27:00.814Z,2.36
2022-12-03T00:29:27.950Z,2.34
2022-12-03T00:31:54.879Z,2.29
2022-12-03T00:34:25.138Z,2.35
2022-12-03T00:36:54.541Z,2.40
2022-12-03T00:39:21.579Z,2.39
2022-12-03T00:41:48.355Z,2.35
2022-12-03T00:44:15.414Z,2.38
2022-12-03T00:46:42.264Z,2.31
2022-12-03T00:49:09.424Z,2.32
2022-12-03T00:51:36.194Z,2.31
2022-12-03T00:54:03.428Z,2.25
2022-12-03T00:56:30.196Z,2.22
2022-12-03T00:58:57.208Z,2.29
2022-12-03T01:01:24.063Z,2.31
2022-12-03T01:03:51.159Z,2.26
2022-12-03T01:06:17.873Z,2.28
2022-12-03T01:08:44.961Z,2.30
2022-12-03T01:11:31.718Z,2.29
2022-12-03T01:13:58.845Z,2.26
2022-12-03T01:16:25.692Z,2.25
2022-12-03T01:18:52.914Z,2.24
2022-12-03T01:21:19.905Z,2.31
2022-12-03T01:23:47.012Z,2.26
2022-12-03T01:26:13.794Z,2.24
2022-12-03T01:28:42.103Z,2.28
2022-12-03T01:31:27.891Z,2.31
2022-12-03T01:33:55.490Z,2.31
2022-12-03T01:36:22.477Z,2.32
2022-12-03T01:38:49.489Z,2.33
2022-12-03T01:41:20.595Z,2.30
2022-12-03T01:43:48.824Z,2.30
2022-12-03T01:46:19.858Z,2.26
2022-12-03T01:48:48.926Z,2.28
2022-12-03T01:51:16.014Z,2.25
2022-12-03T01:53:44.487Z,2.29
2022-12-03T01:56:15.838Z,2.26
2022-12-03T01:58:44.245Z,2.24
2022-12-03T02:01:14.755Z,2.28
2022-12-03T02:03:42.553Z,2.27
2022-12-03T02:06:17.978Z,2.36
2022-12-03T02:08:49.240Z,2.41
2022-12-03T02:11:27.560Z,2.38
2022-12-03T02:13:59.582Z,2.33
2022-12-03T02:16:26.498Z,2.33
2022-12-03T02:18:53.580Z,2.40
2022-12-03T02:21:29.127Z,2.42
2022-12-03T02:24:16.404Z,2.41
2022-12-03T02:26:43.200Z,2.34
2022-12-03T02:29:10.590Z,2.33
2022-12-03T02:31:37.619Z,2.33
2022-12-03T02:34:08.508Z,2.36
2022-12-03T02:36:36.713Z,2.36
2022-12-03T02:39:05.239Z,2.31
2022-12-03T02:41:51.162Z,2.33
2022-12-03T02:44:18.538Z,2.46
2022-12-03T02:46:45.361Z,2.35
2022-12-03T02:49:12.503Z,2.39
2022-12-03T02:51:39.791Z,2.39
2022-12-03T02:54:06.891Z,2.42
2022-12-03T02:56:33.720Z,2.36
2022-12-03T02:59:05.088Z,2.38
2022-12-03T03:01:32.534Z,2.40
2022-12-03T03:04:00.711Z,2.47
2022-12-03T03:06:27.511Z,2.44
2022-12-03T03:08:54.691Z,2.42
2022-12-03T03:11:21.487Z,2.40
2022-12-03T03:13:48.706Z,2.44
2022-12-03T03:16:15.621Z,2.46
2022-12-03T03:18:42.743Z,2.53
2022-12-03T03:21:09.825Z,2.45
2022-12-03T03:23:36.829Z,2.44
2022-12-03T03:26:09.894Z,2.45
2022-12-03T03:28:44.802Z,2.42
2022-12-03T03:31:13.960Z,2.42
2022-12-03T03:33:43.148Z,2.38
2022-12-03T03:36:10.075Z,2.37
2022-12-03T03:38:37.930Z,2.39
2022-12-03T03:41:07.659Z,2.46
2022-12-03T03:43:37.061Z,2.48
2022-12-03T03:46:05.464Z,2.46
2022-12-03T03:48:34.561Z,2.48
2022-12-03T03:51:09.313Z,2.50
2022-12-03T03:53:42.816Z,2.52
2022-12-03T03:56:10.610Z,2.52
2022-12-03T03:58:38.082Z,2.53
2022-12-03T04:01:04.945Z,2.56
2022-12-03T04:03:31.991Z,2.53
2022-12-03T04:05:58.755Z,2.48
2022-12-03T04:08:25.855Z,2.52
2022-12-03T04:11:11.469Z,2.51
2022-12-03T04:13:38.498Z,2.52
2022-12-03T04:16:05.282Z,2.55
2022-12-03T04:18:44.392Z,2.61
2022-12-03T04:21:38.548Z,2.59
2022-12-03T04:24:05.983Z,2.59
2022-12-03T04:26:51.838Z,2.63
2022-12-03T04:29:20.048Z,2.70
2022-12-03T04:32:05.564Z,2.70
2022-12-03T04:34:52.203Z,2.67
2022-12-03T04:37:19.417Z,2.62
2022-12-03T04:39:46.470Z,2.54
2022-12-03T04:42:13.261Z,2.56
2022-12-03T04:44:40.392Z,2.55
2022-12-03T04:47:12.769Z,2.59
2022-12-03T04:49:42.530Z,2.51
2022-12-03T04:52:10.676Z,2.41
2022-12-03T04:54:38.527Z,2.40
2022-12-03T04:57:06.095Z,2.40
2022-12-03T04:59:33.557Z,2.38
2022-12-03T05:02:00.574Z,2.36
2022-12-03T05:04:27.734Z,2.32
2022-12-03T05:06:54.899Z,2.29
2022-12-03T05:09:22.096Z,2.24
2022-12-03T05:11:48.894Z,2.18
2022-12-03T05:14:15.902Z,2.23
2022-12-03T05:16:42.752Z,2.21
2022-12-03T05:19:09.879Z,2.18
2022-12-03T05:21:36.649Z,2.22
2022-12-03T05:24:03.929Z,2.17
2022-12-03T05:26:30.982Z,2.19
2022-12-03T05:28:58.028Z,2.18
2022-12-03T05:31:24.848Z,2.19
2022-12-03T05:33:52.045Z,2.24
2022-12-03T05:36:18.985Z,2.23
2022-12-03T05:38:46.051Z,2.26
2022-12-03T05:41:31.485Z,2.31
2022-12-03T05:43:58.575Z,2.34
2022-12-03T05:46:25.406Z,2.28
2022-12-03T05:48:52.509Z,2.34
2022-12-03T05:51:19.242Z,2.31
2022-12-03T05:53:46.348Z,2.28
2022-12-03T05:56:13.146Z,2.29
2022-12-03T05:58:40.156Z,2.34
2022-12-03T06:01:06.936Z,2.44
2022-12-03T06:03:34.066Z,2.50
2022-12-03T06:06:00.876Z,2.38
2022-12-03T06:08:27.888Z,2.40
2022-12-03T06:10:54.669Z,2.41
2022-12-03T06:13:21.714Z,2.41
2022-12-03T06:15:48.498Z,2.40
2022-12-03T06:18:15.740Z,2.40
2022-12-03T06:20:42.510Z,2.40
2022-12-03T06:23:09.578Z,2.42
2022-12-03T06:25:36.350Z,2.43
2022-12-03T06:28:03.606Z,2.42
2022-12-03T06:30:30.392Z,2.51
2022-12-03T06:32:57.437Z,2.48
2022-12-03T06:35:24.223Z,2.51
2022-12-03T06:37:51.275Z,2.47
2022-12-03T06:40:18.225Z,2.55
2022-12-03T06:42:45.258Z,2.53
2022-12-03T06:45:12.435Z,2.56
2022-12-03T06:47:39.467Z,2.55
2022-12-03T06:50:08.468Z,2.59
2022-12-03T06:52:35.587Z,2.67
2022-12-03T06:55:02.392Z,2.66
2022-12-03T06:57:29.537Z,2.68
2022-12-03T06:59:56.557Z,2.65
2022-12-03T07:02:23.941Z,2.64
2022-12-03T07:04:50.858Z,2.70
2022-12-03T07:07:17.979Z,2.71
2022-12-03T07:09:44.814Z,2.71
2022-12-03T07:12:11.919Z,2.76
2022-12-03T07:14:38.718Z,2.76
2022-12-03T07:17:05.917Z,2.75
2022-12-03T07:19:33.330Z,2.82
2022-12-03T07:22:00.795Z,2.90
2022-12-03T07:24:27.713Z,2.88
2022-12-03T07:26:55.029Z,2.84
2022-12-03T07:29:22.075Z,2.83
2022-12-03T07:31:49.413Z,2.94
2022-12-03T07:34:16.237Z,2.91
2022-12-03T07:36:43.623Z,2.90
2022-12-03T07:39:10.783Z,2.98
2022-12-03T07:41:37.804Z,2.98
2022-12-03T07:44:07.814Z,3.03
2022-12-03T07:46:39.530Z,3.08
2022-12-03T07:49:06.341Z,3.09
2022-12-03T07:51:33.402Z,3.15
2022-12-03T07:54:00.154Z,3.14
2022-12-03T07:56:27.244Z,3.15
2022-12-03T07:58:54.057Z,3.16
2022-12-03T08:01:21.159Z,3.19
2022-12-03T08:03:47.918Z,3.33
2022-12-03T08:06:14.975Z,3.36
2022-12-03T08:08:43.361Z,3.40
2022-12-03T08:11:14.811Z,3.40
2022-12-03T08:13:41.659Z,3.45
2022-12-03T08:16:20.615Z,3.44
2022-12-03T08:18:48.721Z,3.57
2022-12-03T08:21:21.705Z,3.50
2022-12-03T08:23:48.566Z,3.50
2022-12-03T08:26:28.069Z,3.63
2022-12-03T08:28:54.975Z,3.70
2022-12-03T08:31:33.485Z,3.73
2022-12-03T08:34:18.765Z,3.81
2022-12-03T08:36:47.171Z,4.01
2022-12-03T08:39:37.908Z,3.99
2022-12-03T08:42:26.681Z,4.00
2022-12-03T08:44:55.339Z,4.11
2022-12-03T08:47:24.465Z,4.08
2022-12-03T08:50:00.347Z,4.16
2022-12-03T08:52:32.447Z,4.17
2022-12-03T08:55:02.793Z,4.17
2022-12-03T08:57:32.753Z,4.16
2022-12-03T09:00:19.877Z,4.18
2022-12-03T09:02:52.370Z,4.09
2022-12-03T09:05:22.570Z,4.10
2022-12-03T09:07:49.825Z,4.13
2022-12-03T09:10:16.781Z,4.24
2022-12-03T09:12:46.721Z,4.28
2022-12-03T09:15:13.493Z,4.36
2022-12-03T09:17:40.550Z,4.49
2022-12-03T09:20:07.886Z,4.59
2022-12-03T09:22:34.976Z,4.62
2022-12-03T09:25:01.717Z,4.68
2022-12-03T09:27:28.778Z,4.70
2022-12-03T09:29:55.553Z,4.86
2022-12-03T09:32:22.783Z,5.12
2022-12-03T09:34:49.526Z,5.14
2022-12-03T09:37:16.527Z,5.25
2022-12-03T09:39:43.273Z,5.20
2022-12-03T09:42:10.737Z,5.28
2022-12-03T09:44:38.272Z,5.57
2022-12-03T09:47:06.155Z,5.62
2022-12-03T09:49:35.762Z,5.52
2022-12-03T09:52:05.003Z,5.49
2022-12-03T09:54:33.021Z,5.64
2022-12-03T09:57:02.478Z,5.72
2022-12-03T09:59:34.324Z,5.77
2022-12-03T10:02:02.258Z,5.86
2022-12-03T10:04:30.081Z,5.98
2022-12-03T10:06:58.933Z,6.10
2022-12-03T10:09:28.558Z,6.39
2022-12-03T10:11:59.981Z,6.46
2022-12-03T10:14:27.609Z,6.71
2022-12-03T10:16:55.543Z,6.95
2022-12-03T10:19:35.415Z,6.91
2022-12-03T10:22:02.518Z,7.13
2022-12-03T10:24:34.484Z,7.51
2022-12-03T10:27:30.651Z,7.59
2022-12-03T10:29:59.656Z,8.11
2022-12-03T10:32:48.115Z,8.15
2022-12-03T10:35:41.396Z,8.04
2022-12-03T10:38:22.394Z,7.82
2022-12-03T10:40:49.659Z,7.79
2022-12-03T10:43:19.607Z,7.75
2022-12-03T10:45:51.420Z,8.00
2022-12-03T10:48:27.511Z,8.23
2022-12-03T10:51:07.165Z,8.27
2022-12-03T10:53:37.168Z,8.64
2022-12-03T10:56:06.881Z,8.69
2022-12-03T10:58:36.000Z,8.21
2022-12-03T11:01:06.893Z,7.93
2022-12-03T11:03:35.980Z,8.50
2022-12-03T11:06:03.822Z,8.49
2022-12-03T11:08:35.383Z,8.37
2022-12-03T11:11:08.610Z,8.39
2022-12-03T11:13:35.602Z,8.27
2022-12-03T11:16:04.777Z,8.09
2022-12-03T11:18:37.697Z,8.10
2022-12-03T11:21:13.135Z,8.07
2022-12-03T11:23:46.134Z,8.21
2022-12-03T11:26:19.863Z,8.19
2022-12-03T11:28:47.036Z,8.13
2022-12-03T11:31:36.855Z,8.07
2022-12-03T11:34:19.655Z,8.02
2022-12-03T11:37:11.471Z,8.10
2022-12-03T11:39:50.992Z,8.13
2022-12-03T11:42:26.680Z,8.10
2022-12-03T11:45:06.448Z,8.12
2022-12-03T11:47:43.858Z,7.98
2022-12-03T11:50:32.569Z,7.93
2022-12-03T11:53:15.628Z,8.09
2022-12-03T11:55:48.460Z,8.15
2022-12-03T11:58:17.278Z,8.08
2022-12-03T12:00:52.606Z,7.96
2022-12-03T12:03:36.443Z,7.92
2022-12-03T12:06:15.331Z,7.96
2022-12-03T12:09:03.912Z,8.02
2022-12-03T12:11:33.737Z,7.83
2022-12-03T12:14:02.894Z,7.71
2022-12-03T12:16:51.508Z,7.64
2022-12-03T12:19:49.817Z,7.62
2022-12-03T12:22:27.172Z,7.58
2022-12-03T12:24:55.610Z,7.43
2022-12-03T12:27:31.714Z,7.49
2022-12-03T12:30:13.659Z,7.54
2022-12-03T12:32:50.342Z,7.39
2022-12-03T12:35:25.475Z,7.22
2022-12-03T12:38:00.494Z,7.19
2022-12-03T12:40:30.379Z,7.07
2022-12-03T12:43:05.386Z,6.94
2022-12-03T12:45:36.450Z,6.93
2022-12-03T12:48:24.840Z,6.89
2022-12-03T12:51:13.082Z,6.83
2022-12-03T12:53:42.928Z,6.74
2022-12-03T12:56:28.074Z,6.71
2022-12-03T12:58:59.373Z,6.73
2022-12-03T13:01:31.699Z,6.63
2022-12-03T13:03:59.571Z,6.60
2022-12-03T13:06:29.399Z,6.55
2022-12-03T13:08:57.107Z,6.56
2022-12-03T13:11:42.352Z,6.51
2022-12-03T13:14:18.968Z,6.50
2022-12-03T13:16:47.369Z,6.45
2022-12-03T13:19:22.859Z,6.28
2022-12-03T13:21:51.412Z,6.26
2022-12-03T13:24:42.588Z,6.33
2022-12-03T13:27:18.105Z,6.32
2022-12-03T13:29:56.129Z,6.30
2022-12-03T13:32:33.610Z,6.25
2022-12-03T13:35:07.138Z,6.29
2022-12-03T13:37:34.205Z,6.31
2022-12-03T13:40:12.595Z,6.33
2022-12-03T13:42:39.495Z,6.28
2022-12-03T13:45:29.649Z,6.31
2022-12-03T13:48:00.109Z,6.26
2022-12-03T13:50:38.857Z,6.27
2022-12-03T13:53:28.075Z,6.28
2022-12-03T13:56:15.742Z,6.22
2022-12-03T13:58:42.518Z,6.17
2022-12-03T14:01:09.627Z,6.20
2022-12-03T14:03:36.437Z,6.24
2022-12-03T14:06:03.514Z,6.26
2022-12-03T14:08:30.278Z,6.27
2022-12-03T14:11:00.471Z,6.17
2022-12-03T14:13:27.773Z,6.12
2022-12-03T14:15:55.362Z,6.13
2022-12-03T14:18:22.260Z,6.11
2022-12-03T14:20:49.425Z,6.10
2022-12-03T14:23:16.261Z,6.10
2022-12-03T14:25:44.080Z,6.11
2022-12-03T14:28:11.103Z,6.12
2022-12-03T14:30:38.147Z,6.15
2022-12-03T14:33:04.955Z,6.10
2022-12-03T14:35:32.036Z,6.14
2022-12-03T14:37:58.831Z,6.12
2022-12-03T14:40:26.340Z,6.06
2022-12-03T14:42:53.128Z,6.06
2022-12-03T14:45:20.952Z,6.03
2022-12-03T14:47:47.681Z,5.98
2022-12-03T14:50:14.827Z,5.91
2022-12-03T14:52:41.892Z,5.88
2022-12-03T14:55:09.165Z,5.89
2022-12-03T14:57:35.893Z,5.84
2022-12-03T15:00:03.974Z,5.81
2022-12-03T15:02:30.853Z,5.78
2022-12-03T15:04:58.052Z,5.74
2022-12-03T15:07:24.825Z,5.75
2022-12-03T15:09:52.236Z,5.75
2022-12-03T15:12:19.294Z,5.72
2022-12-03T15:14:47.495Z,5.67
2022-12-03T15:17:14.372Z,5.65
2022-12-03T15:19:41.602Z,5.67
2022-12-03T15:22:08.354Z,5.56
2022-12-03T15:24:35.402Z,5.50
2022-12-03T15:27:02.127Z,5.50
2022-12-03T15:29:29.277Z,5.46
2022-12-03T15:31:56.135Z,5.44
2022-12-03T15:34:23.547Z,5.38
2022-12-03T15:36:51.216Z,5.35
2022-12-03T15:39:18.619Z,5.27
2022-12-03T15:41:45.359Z,5.28
2022-12-03T15:44:12.420Z,5.26
2022-12-03T15:46:39.284Z,5.18
2022-12-03T15:49:06.476Z,5.14
2022-12-03T15:51:33.257Z,5.13
2022-12-03T15:54:00.305Z,5.08
2022-12-03T15:56:27.054Z,5.05
2022-12-03T15:58:54.245Z,5.00
2022-12-03T16:01:21.088Z,5.10
2022-12-03T16:03:48.206Z,5.03
2022-12-03T16:06:15.029Z,4.99
2022-12-03T16:08:42.142Z,4.91
2022-12-03T16:11:08.952Z,4.85
2022-12-03T16:13:36.053Z,4.78
2022-12-03T16:16:02.839Z,4.75
2022-12-03T16:18:32.381Z,4.70
2022-12-03T16:20:59.138Z,4.73
2022-12-03T16:23:26.210Z,4.75
2022-12-03T16:25:52.961Z,4.66
2022-12-03T16:28:19.982Z,4.65
2022-12-03T16:30:46.837Z,4.61
2022-12-03T16:33:13.911Z,4.54
2022-12-03T16:35:40.674Z,4.47
2022-12-03T16:38:07.698Z,4.47
2022-12-03T16:40:34.447Z,4.42
2022-12-03T16:43:03.375Z,4.39
2022-12-03T16:45:40.878Z,4.32
2022-12-03T16:48:07.905Z,4.28
2022-12-03T16:50:37.539Z,4.38
2022-12-03T16:53:04.708Z,4.31
2022-12-03T16:55:31.515Z,4.19
2022-12-03T16:57:58.568Z,4.10
2022-12-03T17:00:25.982Z,4.08
2022-12-03T17:02:53.118Z,4.09
2022-12-03T17:05:20.106Z,4.12
2022-12-03T17:07:47.195Z,4.17
2022-12-03T17:10:14.086Z,4.15
2022-12-03T17:13:08.081Z,4.07
2022-12-03T17:15:28.080Z,4.13
2022-12-03T17:17:55.252Z,4.02
2022-12-03T17:20:22.209Z,4.04
2022-12-03T17:22:49.313Z,4.06
2022-12-03T17:25:16.187Z,4.02
2022-12-03T17:27:45.560Z,4.01
2022-12-03T17:30:13.247Z,3.97
2022-12-03T17:32:40.427Z,3.98
2022-12-03T17:35:07.881Z,3.97
2022-12-03T17:37:35.053Z,3.94
2022-12-03T17:40:02.122Z,3.97
2022-12-03T17:42:29.149Z,4.08
2022-12-03T17:44:55.915Z,4.06
2022-12-03T17:47:22.931Z,3.98
2022-12-03T17:49:49.646Z,4.04
2022-12-03T17:52:16.746Z,4.07
2022-12-03T17:55:09.227Z,3.95
2022-12-03T17:57:30.554Z,3.96
2022-12-03T17:59:57.491Z,3.94
2022-12-03T18:02:24.671Z,3.89
2022-12-03T18:04:51.553Z,3.97
2022-12-03T18:07:18.594Z,3.93
2022-12-03T18:09:45.322Z,3.96
2022-12-03T18:12:12.364Z,3.90
2022-12-03T18:14:39.138Z,3.91
2022-12-03T18:17:06.203Z,3.89
2022-12-03T18:19:32.945Z,3.91
2022-12-03T18:22:00.003Z,3.85
2022-12-03T18:24:26.802Z,3.87
2022-12-03T18:26:53.805Z,3.85
2022-12-03T18:29:20.630Z,3.87
2022-12-03T18:31:47.718Z,3.88
2022-12-03T18:34:14.912Z,3.93
2022-12-03T18:36:42.152Z,3.94
2022-12-03T18:39:20.118Z,3.91
2022-12-03T18:41:47.182Z,3.88
2022-12-03T18:44:13.980Z,3.84
2022-12-03T18:46:56.892Z,3.81
2022-12-03T18:49:23.768Z,3.82
2022-12-03T18:51:56.018Z,3.81
2022-12-03T18:54:25.593Z,3.83
2022-12-03T18:56:56.465Z,3.85
2022-12-03T18:59:31.865Z,3.84
2022-12-03T19:01:58.977Z,3.83
2022-12-03T19:04:25.741Z,3.85
2022-12-03T19:07:04.951Z,3.81
2022-12-03T19:09:36.601Z,3.85
2022-12-03T19:12:04.383Z,3.81
2022-12-03T19:14:31.464Z,3.77
2022-12-03T19:17:02.913Z,3.75
2022-12-03T19:19:29.900Z,3.78
2022-12-03T19:21:57.232Z,3.72
2022-12-03T19:24:25.600Z,3.68
2022-12-03T19:26:55.382Z,3.68
2022-12-03T19:29:25.041Z,3.71
2022-12-03T19:31:52.585Z,3.67
2022-12-03T19:34:19.508Z,3.61
2022-12-03T19:36:47.508Z,3.56
2022-12-03T19:39:17.337Z,3.67
2022-12-03T19:41:44.752Z,3.68
2022-12-03T19:44:16.315Z,3.67
2022-12-03T19:46:44.214Z,3.66
2022-12-03T19:49:11.540Z,3.47
2022-12-03T19:51:38.633Z,3.47
2022-12-03T19:54:07.151Z,3.60
2022-12-03T19:56:35.082Z,3.51
2022-12-03T19:59:02.563Z,3.56
2022-12-03T20:01:32.378Z,3.61
2022-12-03T20:04:01.025Z,3.48
2022-12-03T20:06:31.669Z,3.48
2022-12-03T20:09:00.776Z,3.48
2022-12-03T20:11:30.957Z,3.56
2022-12-03T20:14:07.335Z,3.58
2022-12-03T20:16:35.252Z,3.67
2022-12-03T20:19:04.757Z,3.72
2022-12-03T20:21:36.542Z,3.72
2022-12-03T20:24:04.478Z,3.68
2022-12-03T20:26:32.028Z,3.68
2022-12-03T20:28:58.900Z,3.70
2022-12-03T20:31:28.753Z,3.72
2022-12-03T20:33:58.091Z,3.70
2022-12-03T20:36:25.585Z,3.74
2022-12-03T20:38:57.349Z,3.67
2022-12-03T20:41:25.182Z,3.74
2022-12-03T20:43:53.252Z,3.73
2022-12-03T20:46:26.660Z,3.76
2022-12-03T20:48:54.176Z,3.78
2022-12-03T20:51:25.123Z,3.77
2022-12-03T20:53:52.363Z,3.74
2022-12-03T20:56:26.052Z,3.77
2022-12-03T20:58:56.201Z,3.67
2022-12-03T21:01:26.429Z,3.57
2022-12-03T21:03:54.969Z,3.54
2022-12-03T21:06:23.747Z,3.49
2022-12-03T21:08:53.022Z,3.48
2022-12-03T21:11:23.984Z,3.55
2022-12-03T21:13:51.583Z,3.58
2022-12-03T21:16:39.290Z,3.49
2022-12-03T21:19:08.653Z,3.53
2022-12-03T21:21:36.028Z,3.57
2022-12-03T21:24:02.832Z,3.61
2022-12-03T21:26:32.778Z,3.64
2022-12-03T21:28:59.620Z,3.68
2022-12-03T21:31:27.009Z,3.71
2022-12-03T21:33:55.295Z,3.69
2022-12-03T21:36:23.547Z,3.74
2022-12-03T21:38:50.675Z,3.77
2022-12-03T21:41:18.246Z,3.76
2022-12-03T21:43:45.170Z,3.76
2022-12-03T21:47:11.640Z,3.73
2022-12-03T21:49:02.107Z,3.83
2022-12-03T21:51:29.215Z,3.81
2022-12-03T21:53:56.099Z,3.81
2022-12-03T21:56:23.232Z,3.89
2022-12-03T21:58:50.122Z,3.89
2022-12-03T22:01:20.784Z,3.90
2022-12-03T22:03:48.065Z,3.89
2022-12-03T22:06:15.854Z,3.95
2022-12-03T22:08:43.304Z,3.97
2022-12-03T22:11:14.909Z,3.96
2022-12-03T22:13:42.628Z,3.94
2022-12-03T22:16:14.204Z,3.91
2022-12-03T22:18:41.037Z,3.95
2022-12-03T22:21:17.551Z,3.94
2022-12-03T22:23:45.077Z,3.93
2022-12-03T22:26:15.136Z,3.94
2022-12-03T22:28:46.671Z,3.87
2022-12-03T22:31:14.595Z,3.85
2022-12-03T22:33:41.597Z,3.82
2022-12-03T22:36:17.999Z,3.81
2022-12-03T22:38:46.603Z,3.84
2022-12-03T22:41:14.432Z,3.82
2022-12-03T22:43:41.539Z,3.85
2022-12-03T22:46:13.348Z,3.86
2022-12-03T22:48:45.643Z,3.85
2022-12-03T22:51:21.277Z,3.82
2022-12-03T22:53:55.835Z,3.82
2022-12-03T22:56:23.575Z,3.90
2022-12-03T22:58:51.044Z,4.04
2022-12-03T23:01:25.856Z,4.11
2022-12-03T23:03:52.726Z,4.10
2022-12-03T23:06:20.325Z,4.06
2022-12-03T23:08:47.663Z,4.03
2022-12-03T23:11:15.637Z,4.10
2022-12-03T23:13:42.545Z,4.07
2022-12-03T23:16:24.717Z,4.10
2022-12-03T23:18:51.861Z,4.09
2022-12-03T23:21:28.518Z,4.15
2022-12-03T23:23:56.778Z,4.19
2022-12-03T23:26:23.947Z,4.23
2022-12-03T23:28:50.788Z,4.22
2022-12-03T23:31:23.097Z,4.22
2022-12-03T23:33:50.955Z,4.25
2022-12-03T23:36:18.729Z,4.25
2022-12-03T23:38:45.710Z,4.37
2022-12-03T23:41:16.106Z,4.29
2022-12-03T23:43:43.461Z,4.21
2022-12-03T23:46:15.986Z,4.16
2022-12-03T23:48:43.639Z,4.15
2022-12-03T23:51:14.525Z,4.08
2022-12-03T23:53:41.451Z,4.04
2022-12-03T23:56:14.808Z,4.09
2022-12-03T23:58:42.016Z,4.01
